Terminal Aerodrome Forecast
Issued by NWS

Home | Current Version | Previous Version | Text Only | Print | Product List | Glossary On
Versions: 1 2 3 4 5 6 7 8 9 10 11 12
000
FTUS44 KLIX 222300
TAFGPT
TAF
KGPT 222340Z 2300/2324 10009KT P6SM SCT015 BKN025
     FM230600 10013KT P6SM VCTS OVC015CB
     FM230900 12013KT 3SM -SHRA OVC015
      TEMPO 2311/2315 VRB35KT 1SM +TSRA BKN008CB
     FM231500 17015KT 3SM -SHRA OVC015
     FM231900 20016KT P6SM BKN090
     FM232200 21012KT P6SM SCT250=

USA.gov is the U.S. government's official web portal to all federal, state and local government web resources and services.